Astro Chloe — SVAL7 — position and weather

sailwx.info

Track history (hours):
 
Tides and Currents Weather Stations Pressure Air Temp Water Temp Dewpoint Dewpoint Depression Visibility Wind Speed Wind Dir Waves Ship Positions

Astro Chloe

Last reported at 2015-Jun-22 19:18 UTC. Time now 2015-Jul-05 09:29 UTC.
Position N 01°16' E 104°14'.
Warning: this ship's position is 12 days out of date.

Length 333 m; draft 21 m.

Type: Ship (hazmat cat B). MMSI: 240839000.

Date/timePositionNaut miles runAvg speedWind from/ knotsBaromVisibWave heightAir tempDewpointWater temp
2015-Jun-22 19:18N 01°16' E 104°14'911.5
2015-Jun-22 18:32N 01°15' E 104°06'5 5.0
2015-Jun-22 17:33N 01°14' E 104°01'1111.4
2015-Jun-22 16:33N 01°11' E 103°50'1110.1
2015-Jun-22 15:30N 01°05' E 103°41'6211.9
2015-Jun-22 10:20N 01°37' E 102°49'1012.7
2015-Jun-22 09:32N 01°42' E 102°40'1312.9
2015-Jun-22 08:33N 01°47' E 102°28'1913.3
2015-Jun-22 07:08N 01°55' E 102°11'  
Track history (hours):
 
Tides and Currents Weather Stations Pressure Air Temp Water Temp Dewpoint Dewpoint Depression Visibility Wind Speed Wind Dir Waves Ship Positions

Astro Chloe

Last reported at 2015-Jun-22 19:18 UTC. Time now 2015-Jul-05 09:29 UTC.
Position N 01°16' E 104°14'.
Warning: this ship's position is 12 days out of date.

Length 333 m; draft 21 m.

Type: Ship (hazmat cat B). MMSI: 240839000.

Date/timePositionNaut miles runAvg speedWind from/ knotsBaromVisibWave heightAir tempDewpointWater temp
2015-Jun-22 19:18N 01°16' E 104°14'911.5
2015-Jun-22 18:32N 01°15' E 104°06'5 5.0
2015-Jun-22 17:33N 01°14' E 104°01'1111.4
2015-Jun-22 16:33N 01°11' E 103°50'1110.1
2015-Jun-22 15:30N 01°05' E 103°41'6211.9
2015-Jun-22 10:20N 01°37' E 102°49'1012.7
2015-Jun-22 09:32N 01°42' E 102°40'1312.9
2015-Jun-22 08:33N 01°47' E 102°28'1913.3
2015-Jun-22 07:08N 01°55' E 102°11'  

Dump ship's entire track history